Aviation Digital Data Service (ADDS)

Output produced by METARs form (1812 UTC 14 August 2018)
found at http://www.aviationweather.gov/adds/metars/
 
SEGU 141630Z 1418/1518 15007KT 9999 BKN026 OVC100 
     FM150000 21014KT 9999 SCT020 
     BECMG 1504/0505 BKN020 BKN100 
     FM151300 20007KT 9999 SCT020 SCT100 TX27/1419Z TN20/1509Z
       
SELT 141630Z 1418/1518 17015KT 9999 BKN030 
     FM150000 19005KT 9999 SCT030 
     FM150500 VRB03KT 9999 FEW010 BKN030 
     FM151400 17010KT 9999 BKN030 TX19/1419Z TN06/1511Z
       
SEMT 141630Z 1418/1518 22006KT 9999 BKN020 
     BECMG 1422/1423 SCT020 
     BECMG 1505/1507 BKN020 TX29/1420Z TN21/1510Z
       
SEQM 141630Z 1418/1518 36012KT 9999 SCT030 BKN300 
     TEMPO 1419/1422 BKN030 SCT300 
     FM150000 03004KT 9999 SCT030 
     FM150600 VRB03KT 9999 FEW030 
     BECMG 1512/1513 SCT033 SCT300 TX23/1419Z TN08/1511Z